Strona główna
METAR-TAF:

METAR-TAF

Lotnisko :

Port lotniczy Pittsburgh

Pittsburgh, Pensylwania, Stany Zjednoczone

Szerokość geograficzna: 40-30-14N, Długość geograficzna: 080-15-59W, wysokość: 366 m

Aktualna obserwacja pogody

Raport powstał 26 minut temu, godzina 02:51 UTC
Wiatr 5 kt od północ
Temperatura 21°C
Wilgotność 64%
Ciśnienie 1017 hPa
Widzialność: 16.1 km
Mało chmury na wysokości 7000 ft
Rozproszone chmury na wysokości 25000 ft

METAR: KPIT 180251Z 01005KT 10SM FEW070 SCT250 21/14 A3002 RMK AO2 SLP164 T02110139 51017

czas: 23:17 (03:17 UTC)

Prognoza

Raport powstał 21 minut temu, godzina 02:56 UTC
Prognoza ważna od 18 godzina 03 UTC do 19 godzina 06 UTC
Wiatr 4 kt z kierunków zmiennych
Widzialność: 10 km
bezchmurnie

TAF: KPIT 180256Z 1803/1906 VRB04KT P6SM SKC

Obserwacja i prognoza pogody dla ponad 4000 lotnisk (raport METAR i TAF).

Dostępne stacje oznaczono żółtymi i czerwonymi punktami na mapie.

Najedź kursorem aby zobaczyć nazwę stacji.

Kliknij aby zobaczyć obserwacje i prognozy pogody.

Aby zmienić mapę: kliknij na zielony przycisk z czarnym krzyżykiem, aby powiększyć; na zielony przycisk z myślnikiem, aby pomniejszyć; na zielone strzałki, aby przejść do map sąsiednich.


METAR-TAF: